Maple Grove, MN (55311)

8:58 AM CDT on July 23, 2016 (GMT -0500)
North Rice Lake | | Change Station

Elev 896 ft 45.12 °N, 93.48 °W | Updated 1 minute ago

Clear
Clear
81.7 °F
Feels Like 93 °F
N
3.2
Wind Variable Wind from ESE

Today
High -- | Low -- °F
--% Chance of Precip.
Yesterday
High -- | Low -- °F
Precip. -- in
Pressure 29.85 in
Visibility 10.0 miles
Clouds Clear
Heat Index 93 °F
Dew Point 81 °F
Humidity 98%
Rainfall 0.00 in
Snow Depth Not available.
5:49 AM 8:50 PM
Waning Gibbous, 85% visible
METAR KMIC 231353Z 08008KT 10SM CLR 27/22 A2986 RMK AO2 SLP106 T02720222
Pressure 29.85 in
Visibility 10.0 miles
Clouds Clear
Heat Index 93 °F
Dew Point 81 °F
Humidity 98%
Rainfall 0.00 in
Snow Depth Not available.
5:49 AM 8:50 PM
Waning Gibbous, 85% visible
METAR KMIC 231353Z 08008KT 10SM CLR 27/22 A2986 RMK AO2 SLP106 T02720222

10-Day Weather Forecast

Almanac

Astronomy

Jul. 23, 2016 Rise Set
Actual Time
Civil Twilight
Nautical Twilight
Astronomical Twilight
Moon
Length of Visible Light
Length of Day
Tomorrow will be .
, % of the Moon is Illuminated

Today's Extremes

State Highs State Lows

Community

WunderPhotos

Upload Photos

1,926,818 photos uploaded!

WunderBlog® & News

Nearby

Air Quality

  Air Quality AQ Index Pollutant
Not available.

Snow Depth

Station Depth Elevation

Earthquake Activity

City Distance Mag. Time & Date
Minimum magnitude displayed is 2.5.

Coastal Water Temperatures

Place Temperature

Stations

Nearby Weather Stations

Station Location Temp. Windchill Dew Point Humidity Wind Precip. Elev Updated Type
                   

Watches & Warnings

There are currently no watches in effect.